sensor_id;sensor_type;location;lat;lon;timestamp;P1;durP1;ratioP1;P2;durP2;ratioP2
20318;SDS011;10317;47.254;11.314;2023-05-20T00:45:26;10.00;;;8.93;;
20318;SDS011;10317;47.254;11.314;2023-05-20T00:51:37;11.30;;;9.57;;
20318;SDS011;10317;47.254;11.314;2023-05-20T00:54:48;11.57;;;9.38;;
20318;SDS011;10317;47.254;11.314;2023-05-20T00:57:15;11.50;;;9.05;;
20318;SDS011;10317;47.254;11.314;2023-05-20T00:59:45;9.48;;;8.48;;
20318;SDS011;10317;47.254;11.314;2023-05-20T01:02:18;10.38;;;9.38;;
20318;SDS011;10317;47.254;11.314;2023-05-20T01:04:49;11.30;;;9.38;;
20318;SDS011;10317;47.254;11.314;2023-05-20T01:08:11;10.68;;;9.57;;
20318;SDS011;10317;47.254;11.314;2023-05-20T01:11:10;13.00;;;10.90;;
20318;SDS011;10317;47.254;11.314;2023-05-20T01:14:36;11.25;;;9.68;;
20318;SDS011;10317;47.254;11.314;2023-05-20T01:21:22;9.90;;;8.90;;
20318;SDS011;10317;47.254;11.314;2023-05-20T01:31:39;11.80;;;10.50;;
20318;SDS011;10317;47.254;11.314;2023-05-20T01:35:29;14.48;;;10.45;;
20318;SDS011;10317;47.254;11.314;2023-05-20T02:18:25;10.55;;;9.45;;
20318;SDS011;10317;47.254;11.314;2023-05-20T02:21:09;10.20;;;9.20;;
20318;SDS011;10317;47.254;11.314;2023-05-20T02:24:30;13.75;;;10.50;;
20318;SDS011;10317;47.254;11.314;2023-05-20T02:27:13;10.25;;;8.80;;
20318;SDS011;10317;47.254;11.314;2023-05-20T02:30:58;11.40;;;8.70;;
20318;SDS011;10317;47.254;11.314;2023-05-20T02:34:41;13.80;;;10.07;;
20318;SDS011;10317;47.254;11.314;2023-05-20T02:44:58;9.80;;;8.82;;
20318;SDS011;10317;47.254;11.314;2023-05-20T03:22:56;14.48;;;8.85;;
20318;SDS011;10317;47.254;11.314;2023-05-20T03:26:21;13.50;;;9.90;;
20318;SDS011;10317;47.254;11.314;2023-05-20T03:29:52;12.35;;;10.35;;
20318;SDS011;10317;47.254;11.314;2023-05-20T03:33:32;12.63;;;10.52;;
20318;SDS011;10317;47.254;11.314;2023-05-20T03:39:49;10.85;;;9.13;;
20318;SDS011;10317;47.254;11.314;2023-05-20T03:43:22;14.02;;;9.38;;
20318;SDS011;10317;47.254;11.314;2023-05-20T03:46:59;11.90;;;8.93;;
20318;SDS011;10317;47.254;11.314;2023-05-20T03:50:24;9.63;;;8.68;;
20318;SDS011;10317;47.254;11.314;2023-05-20T03:53:26;10.55;;;9.50;;
20318;SDS011;10317;47.254;11.314;2023-05-20T03:56:42;9.90;;;8.98;;
20318;SDS011;10317;47.254;11.314;2023-05-20T03:59:45;10.68;;;9.57;;
20318;SDS011;10317;47.254;11.314;2023-05-20T04:02:53;10.65;;;9.65;;
20318;SDS011;10317;47.254;11.314;2023-05-20T04:06:08;12.68;;;9.48;;
20318;SDS011;10317;47.254;11.314;2023-05-20T04:09:37;13.38;;;11.07;;
20318;SDS011;10317;47.254;11.314;2023-05-20T07:16:59;9.52;;;7.25;;
20318;SDS011;10317;47.254;11.314;2023-05-20T07:19:28;11.48;;;8.88;;
20318;SDS011;10317;47.254;11.314;2023-05-20T07:21:54;7.80;;;6.93;;
20318;SDS011;10317;47.254;11.314;2023-05-20T07:24:19;7.93;;;7.13;;
20318;SDS011;10317;47.254;11.314;2023-05-20T07:26:45;8.85;;;7.03;;
20318;SDS011;10317;47.254;11.314;2023-05-20T07:29:11;8.32;;;7.45;;
20318;SDS011;10317;47.254;11.314;2023-05-20T07:31:36;9.82;;;7.90;;
20318;SDS011;10317;47.254;11.314;2023-05-20T07:34:02;8.38;;;7.50;;
20318;SDS011;10317;47.254;11.314;2023-05-20T07:36:28;9.95;;;7.40;;
20318;SDS011;10317;47.254;11.314;2023-05-20T07:38:54;9.95;;;6.53;;
20318;SDS011;10317;47.254;11.314;2023-05-20T07:41:20;7.60;;;5.43;;
20318;SDS011;10317;47.254;11.314;2023-05-20T07:43:46;7.10;;;6.07;;
20318;SDS011;10317;47.254;11.314;2023-05-20T07:46:12;6.60;;;5.75;;
20318;SDS011;10317;47.254;11.314;2023-05-20T07:48:37;7.95;;;5.70;;
20318;SDS011;10317;47.254;11.314;2023-05-20T07:51:03;7.78;;;5.82;;
20318;SDS011;10317;47.254;11.314;2023-05-20T07:53:29;6.22;;;5.60;;
20318;SDS011;10317;47.254;11.314;2023-05-20T07:55:55;5.70;;;5.15;;
20318;SDS011;10317;47.254;11.314;2023-05-20T07:58:20;5.85;;;5.35;;
20318;SDS011;10317;47.254;11.314;2023-05-20T08:00:46;7.70;;;5.85;;
20318;SDS011;10317;47.254;11.314;2023-05-20T08:03:12;4.68;;;4.28;;
20318;SDS011;10317;47.254;11.314;2023-05-20T08:05:39;6.13;;;5.28;;
20318;SDS011;10317;47.254;11.314;2023-05-20T08:08:05;7.20;;;6.13;;
20318;SDS011;10317;47.254;11.314;2023-05-20T08:10:31;7.97;;;6.30;;
20318;SDS011;10317;47.254;11.314;2023-05-20T08:12:57;8.40;;;5.93;;
20318;SDS011;10317;47.254;11.314;2023-05-20T08:15:22;12.02;;;6.25;;
20318;SDS011;10317;47.254;11.314;2023-05-20T08:17:48;5.97;;;5.20;;
20318;SDS011;10317;47.254;11.314;2023-05-20T08:20:14;6.10;;;5.60;;
20318;SDS011;10317;47.254;11.314;2023-05-20T08:22:40;6.72;;;6.13;;
20318;SDS011;10317;47.254;11.314;2023-05-20T08:25:06;6.65;;;5.97;;
20318;SDS011;10317;47.254;11.314;2023-05-20T08:27:33;8.52;;;6.10;;
20318;SDS011;10317;47.254;11.314;2023-05-20T08:30:00;6.05;;;5.45;;
20318;SDS011;10317;47.254;11.314;2023-05-20T08:32:26;6.03;;;5.00;;
20318;SDS011;10317;47.254;11.314;2023-05-20T08:34:51;5.78;;;5.25;;
20318;SDS011;10317;47.254;11.314;2023-05-20T08:37:20;6.45;;;5.70;;
20318;SDS011;10317;47.254;11.314;2023-05-20T08:39:45;6.97;;;5.70;;
20318;SDS011;10317;47.254;11.314;2023-05-20T08:42:13;5.78;;;5.20;;
20318;SDS011;10317;47.254;11.314;2023-05-20T08:44:39;7.50;;;6.05;;
20318;SDS011;10317;47.254;11.314;2023-05-20T08:47:06;7.68;;;5.22;;
20318;SDS011;10317;47.254;11.314;2023-05-20T08:49:32;4.88;;;4.47;;
20318;SDS011;10317;47.254;11.314;2023-05-20T08:51:59;5.50;;;5.00;;
20318;SDS011;10317;47.254;11.314;2023-05-20T08:54:26;8.73;;;5.70;;
20318;SDS011;10317;47.254;11.314;2023-05-20T08:57:07;6.50;;;5.90;;
20318;SDS011;10317;47.254;11.314;2023-05-20T08:59:34;8.23;;;5.97;;
20318;SDS011;10317;47.254;11.314;2023-05-20T09:02:01;11.35;;;5.22;;
20318;SDS011;10317;47.254;11.314;2023-05-20T09:04:27;5.97;;;5.47;;
20318;SDS011;10317;47.254;11.314;2023-05-20T09:06:52;5.20;;;4.70;;
20318;SDS011;10317;47.254;11.314;2023-05-20T09:09:19;6.43;;;4.82;;
20318;SDS011;10317;47.254;11.314;2023-05-20T09:11:45;9.13;;;5.78;;
20318;SDS011;10317;47.254;11.314;2023-05-20T09:14:10;8.52;;;5.63;;
20318;SDS011;10317;47.254;11.314;2023-05-20T09:16:38;5.95;;;5.35;;
20318;SDS011;10317;47.254;11.314;2023-05-20T09:19:05;9.65;;;6.05;;
20318;SDS011;10317;47.254;11.314;2023-05-20T09:21:31;7.18;;;6.35;;
20318;SDS011;10317;47.254;11.314;2023-05-20T09:24:00;6.03;;;5.28;;
20318;SDS011;10317;47.254;11.314;2023-05-20T09:26:27;5.68;;;5.20;;
20318;SDS011;10317;47.254;11.314;2023-05-20T09:28:57;5.57;;;5.07;;
20318;SDS011;10317;47.254;11.314;2023-05-20T09:31:27;5.05;;;4.60;;
20318;SDS011;10317;47.254;11.314;2023-05-20T09:33:54;4.72;;;4.28;;
20318;SDS011;10317;47.254;11.314;2023-05-20T09:36:21;7.05;;;3.72;;
20318;SDS011;10317;47.254;11.314;2023-05-20T09:38:48;5.22;;;3.78;;
20318;SDS011;10317;47.254;11.314;2023-05-20T09:41:19;4.35;;;3.95;;
20318;SDS011;10317;47.254;11.314;2023-05-20T09:43:47;4.30;;;3.67;;
20318;SDS011;10317;47.254;11.314;2023-05-20T09:46:16;3.92;;;3.00;;
20318;SDS011;10317;47.254;11.314;2023-05-20T09:48:43;3.60;;;3.25;;
20318;SDS011;10317;47.254;11.314;2023-05-20T09:51:09;3.08;;;2.80;;
20318;SDS011;10317;47.254;11.314;2023-05-20T09:53:37;3.65;;;3.33;;
20318;SDS011;10317;47.254;11.314;2023-05-20T09:56:03;3.15;;;2.88;;
20318;SDS011;10317;47.254;11.314;2023-05-20T09:58:29;3.53;;;3.22;;
20318;SDS011;10317;47.254;11.314;2023-05-20T10:00:55;3.70;;;2.92;;
20318;SDS011;10317;47.254;11.314;2023-05-20T10:03:21;3.33;;;2.75;;
20318;SDS011;10317;47.254;11.314;2023-05-20T10:08:57;2.40;;;2.28;;
20318;SDS011;10317;47.254;11.314;2023-05-20T10:11:44;2.20;;;2.00;;
20318;SDS011;10317;47.254;11.314;2023-05-20T10:14:39;3.58;;;2.50;;
20318;SDS011;10317;47.254;11.314;2023-05-20T10:20:17;2.75;;;2.05;;
20318;SDS011;10317;47.254;11.314;2023-05-20T10:22:43;1.83;;;1.73;;
20318;SDS011;10317;47.254;11.314;2023-05-20T10:25:23;2.58;;;2.30;;
20318;SDS011;10317;47.254;11.314;2023-05-20T10:27:50;2.17;;;2.08;;
20318;SDS011;10317;47.254;11.314;2023-05-20T10:30:20;2.53;;;2.33;;
20318;SDS011;10317;47.254;11.314;2023-05-20T10:32:53;2.15;;;2.05;;
20318;SDS011;10317;47.254;11.314;2023-05-20T10:35:24;1.65;;;1.58;;
20318;SDS011;10317;47.254;11.314;2023-05-20T10:37:50;2.25;;;2.15;;
20318;SDS011;10317;47.254;11.314;2023-05-20T10:40:18;1.70;;;1.60;;
20318;SDS011;10317;47.254;11.314;2023-05-20T10:42:45;1.88;;;1.77;;
20318;SDS011;10317;47.254;11.314;2023-05-20T10:45:23;2.20;;;1.70;;
20318;SDS011;10317;47.254;11.314;2023-05-20T10:47:53;1.95;;;1.85;;
20318;SDS011;10317;47.254;11.314;2023-05-20T10:52:54;1.73;;;1.65;;
20318;SDS011;10317;47.254;11.314;2023-05-20T10:55:33;2.22;;;2.13;;
20318;SDS011;10317;47.254;11.314;2023-05-20T10:58:03;2.05;;;1.95;;
20318;SDS011;10317;47.254;11.314;2023-05-20T11:00:29;1.73;;;1.70;;
20318;SDS011;10317;47.254;11.314;2023-05-20T11:02:56;2.30;;;2.10;;
20318;SDS011;10317;47.254;11.314;2023-05-20T11:05:22;2.95;;;2.10;;
20318;SDS011;10317;47.254;11.314;2023-05-20T11:07:47;2.00;;;1.90;;
20318;SDS011;10317;47.254;11.314;2023-05-20T11:10:13;2.00;;;1.90;;
20318;SDS011;10317;47.254;11.314;2023-05-20T11:12:39;2.92;;;2.33;;
20318;SDS011;10317;47.254;11.314;2023-05-20T11:15:05;2.05;;;1.90;;
20318;SDS011;10317;47.254;11.314;2023-05-20T11:17:32;2.22;;;1.80;;
20318;SDS011;10317;47.254;11.314;2023-05-20T11:19:57;2.13;;;2.03;;
20318;SDS011;10317;47.254;11.314;2023-05-20T11:22:26;2.72;;;2.53;;
20318;SDS011;10317;47.254;11.314;2023-05-20T11:24:52;3.15;;;2.20;;
20318;SDS011;10317;47.254;11.314;2023-05-20T11:27:17;2.17;;;2.08;;
20318;SDS011;10317;47.254;11.314;2023-05-20T11:29:43;1.95;;;1.80;;
20318;SDS011;10317;47.254;11.314;2023-05-20T11:32:09;2.60;;;2.40;;
20318;SDS011;10317;47.254;11.314;2023-05-20T11:34:36;3.85;;;2.63;;
20318;SDS011;10317;47.254;11.314;2023-05-20T11:37:06;2.05;;;1.95;;
20318;SDS011;10317;47.254;11.314;2023-05-20T11:39:33;2.75;;;2.20;;
20318;SDS011;10317;47.254;11.314;2023-05-20T11:41:58;2.55;;;2.35;;
20318;SDS011;10317;47.254;11.314;2023-05-20T11:44:24;2.15;;;2.05;;
20318;SDS011;10317;47.254;11.314;2023-05-20T11:46:50;2.58;;;2.38;;
20318;SDS011;10317;47.254;11.314;2023-05-20T11:49:16;2.03;;;1.92;;
20318;SDS011;10317;47.254;11.314;2023-05-20T11:51:41;3.55;;;2.70;;
20318;SDS011;10317;47.254;11.314;2023-05-20T11:54:08;4.40;;;2.28;;
20318;SDS011;10317;47.254;11.314;2023-05-20T11:56:35;4.05;;;2.42;;
20318;SDS011;10317;47.254;11.314;2023-05-20T11:59:02;2.33;;;2.22;;
20318;SDS011;10317;47.254;11.314;2023-05-20T12:01:33;4.68;;;2.17;;
20318;SDS011;10317;47.254;11.314;2023-05-20T12:04:05;2.95;;;2.55;;
20318;SDS011;10317;47.254;11.314;2023-05-20T12:06:31;2.45;;;2.33;;
20318;SDS011;10317;47.254;11.314;2023-05-20T12:09:00;2.72;;;2.47;;
20318;SDS011;10317;47.254;11.314;2023-05-20T12:11:31;2.50;;;2.30;;
20318;SDS011;10317;47.254;11.314;2023-05-20T12:13:58;2.97;;;2.40;;
20318;SDS011;10317;47.254;11.314;2023-05-20T12:16:23;2.72;;;2.47;;
20318;SDS011;10317;47.254;11.314;2023-05-20T12:18:49;2.30;;;2.20;;
20318;SDS011;10317;47.254;11.314;2023-05-20T12:21:14;2.70;;;2.50;;
20318;SDS011;10317;47.254;11.314;2023-05-20T12:23:40;3.20;;;2.35;;
20318;SDS011;10317;47.254;11.314;2023-05-20T12:26:06;3.33;;;2.85;;
20318;SDS011;10317;47.254;11.314;2023-05-20T12:28:31;3.33;;;1.95;;
20318;SDS011;10317;47.254;11.314;2023-05-20T12:30:57;3.25;;;2.33;;
20318;SDS011;10317;47.254;11.314;2023-05-20T12:33:23;2.22;;;2.13;;
20318;SDS011;10317;47.254;11.314;2023-05-20T12:35:48;3.10;;;2.90;;
20318;SDS011;10317;47.254;11.314;2023-05-20T12:38:14;3.95;;;3.00;;
20318;SDS011;10317;47.254;11.314;2023-05-20T12:40:39;4.28;;;2.40;;
20318;SDS011;10317;47.254;11.314;2023-05-20T12:43:05;2.80;;;2.60;;
20318;SDS011;10317;47.254;11.314;2023-05-20T12:45:31;2.08;;;1.98;;
20318;SDS011;10317;47.254;11.314;2023-05-20T12:47:57;2.95;;;2.67;;
20318;SDS011;10317;47.254;11.314;2023-05-20T12:50:23;2.30;;;2.10;;
20318;SDS011;10317;47.254;11.314;2023-05-20T12:52:49;8.35;;;2.80;;
20318;SDS011;10317;47.254;11.314;2023-05-20T12:55:15;2.95;;;2.75;;
20318;SDS011;10317;47.254;11.314;2023-05-20T12:57:44;3.88;;;2.92;;
20318;SDS011;10317;47.254;11.314;2023-05-20T13:00:12;2.78;;;2.58;;
20318;SDS011;10317;47.254;11.314;2023-05-20T13:02:38;3.25;;;3.00;;
20318;SDS011;10317;47.254;11.314;2023-05-20T13:05:06;3.55;;;3.30;;
20318;SDS011;10317;47.254;11.314;2023-05-20T13:07:32;3.33;;;2.50;;
20318;SDS011;10317;47.254;11.314;2023-05-20T13:09:58;3.17;;;2.88;;
20318;SDS011;10317;47.254;11.314;2023-05-20T13:12:24;3.67;;;2.92;;
20318;SDS011;10317;47.254;11.314;2023-05-20T13:14:50;2.45;;;2.28;;
20318;SDS011;10317;47.254;11.314;2023-05-20T13:17:16;2.90;;;2.70;;
20318;SDS011;10317;47.254;11.314;2023-05-20T13:19:42;3.47;;;2.92;;
20318;SDS011;10317;47.254;11.314;2023-05-20T13:22:09;4.22;;;3.70;;
20318;SDS011;10317;47.254;11.314;2023-05-20T13:24:35;3.85;;;3.28;;
20318;SDS011;10317;47.254;11.314;2023-05-20T13:27:02;5.18;;;3.25;;
20318;SDS011;10317;47.254;11.314;2023-05-20T13:29:28;2.65;;;2.45;;
20318;SDS011;10317;47.254;11.314;2023-05-20T13:31:54;4.35;;;3.45;;
20318;SDS011;10317;47.254;11.314;2023-05-20T13:34:20;3.20;;;2.90;;
20318;SDS011;10317;47.254;11.314;2023-05-20T13:36:46;4.45;;;2.88;;
20318;SDS011;10317;47.254;11.314;2023-05-20T13:39:13;3.33;;;3.10;;
20318;SDS011;10317;47.254;11.314;2023-05-20T13:41:39;4.25;;;2.92;;
20318;SDS011;10317;47.254;11.314;2023-05-20T13:44:05;4.85;;;3.85;;
20318;SDS011;10317;47.254;11.314;2023-05-20T13:46:31;4.25;;;3.20;;
20318;SDS011;10317;47.254;11.314;2023-05-20T13:48:57;3.80;;;3.45;;
20318;SDS011;10317;47.254;11.314;2023-05-20T13:51:22;3.72;;;2.90;;
20318;SDS011;10317;47.254;11.314;2023-05-20T13:53:48;5.32;;;3.47;;
20318;SDS011;10317;47.254;11.314;2023-05-20T13:56:14;3.60;;;3.30;;
20318;SDS011;10317;47.254;11.314;2023-05-20T13:58:40;3.85;;;2.78;;
20318;SDS011;10317;47.254;11.314;2023-05-20T14:01:06;4.03;;;3.20;;
20318;SDS011;10317;47.254;11.314;2023-05-20T14:03:32;3.63;;;3.05;;
20318;SDS011;10317;47.254;11.314;2023-05-20T14:05:58;3.33;;;3.03;;
20318;SDS011;10317;47.254;11.314;2023-05-20T14:08:24;3.42;;;3.22;;
20318;SDS011;10317;47.254;11.314;2023-05-20T14:10:50;3.30;;;3.00;;
20318;SDS011;10317;47.254;11.314;2023-05-20T14:13:19;3.47;;;3.20;;
20318;SDS011;10317;47.254;11.314;2023-05-20T14:15:45;4.55;;;3.78;;
20318;SDS011;10317;47.254;11.314;2023-05-20T14:18:11;4.45;;;4.05;;
20318;SDS011;10317;47.254;11.314;2023-05-20T14:20:37;3.05;;;2.85;;
20318;SDS011;10317;47.254;11.314;2023-05-20T14:23:02;4.43;;;3.58;;
20318;SDS011;10317;47.254;11.314;2023-05-20T14:25:28;3.42;;;3.10;;
20318;SDS011;10317;47.254;11.314;2023-05-20T14:27:54;3.50;;;3.20;;
20318;SDS011;10317;47.254;11.314;2023-05-20T14:30:19;3.55;;;2.88;;
20318;SDS011;10317;47.254;11.314;2023-05-20T14:32:45;3.83;;;3.58;;
20318;SDS011;10317;47.254;11.314;2023-05-20T14:35:11;4.22;;;3.33;;
20318;SDS011;10317;47.254;11.314;2023-05-20T14:37:36;4.93;;;3.45;;
20318;SDS011;10317;47.254;11.314;2023-05-20T14:40:03;3.90;;;3.60;;
20318;SDS011;10317;47.254;11.314;2023-05-20T14:42:31;3.88;;;3.47;;
20318;SDS011;10317;47.254;11.314;2023-05-20T14:44:57;3.90;;;3.53;;
20318;SDS011;10317;47.254;11.314;2023-05-20T14:47:23;5.95;;;3.45;;
20318;SDS011;10317;47.254;11.314;2023-05-20T14:49:49;4.00;;;3.60;;
20318;SDS011;10317;47.254;11.314;2023-05-20T14:52:16;4.22;;;3.42;;
20318;SDS011;10317;47.254;11.314;2023-05-20T14:54:42;7.97;;;3.42;;
20318;SDS011;10317;47.254;11.314;2023-05-20T14:57:07;3.75;;;3.42;;
20318;SDS011;10317;47.254;11.314;2023-05-20T14:59:33;3.35;;;2.95;;
20318;SDS011;10317;47.254;11.314;2023-05-20T15:01:59;4.60;;;3.47;;
20318;SDS011;10317;47.254;11.314;2023-05-20T15:04:25;3.08;;;2.78;;
20318;SDS011;10317;47.254;11.314;2023-05-20T15:06:51;3.67;;;3.40;;
20318;SDS011;10317;47.254;11.314;2023-05-20T15:09:17;5.22;;;3.65;;
20318;SDS011;10317;47.254;11.314;2023-05-20T15:11:43;5.15;;;3.38;;
20318;SDS011;10317;47.254;11.314;2023-05-20T15:14:09;3.72;;;3.42;;
20318;SDS011;10317;47.254;11.314;2023-05-20T15:16:35;4.82;;;3.55;;
20318;SDS011;10317;47.254;11.314;2023-05-20T15:19:00;4.13;;;3.72;;
20318;SDS011;10317;47.254;11.314;2023-05-20T15:21:26;3.80;;;3.33;;
20318;SDS011;10317;47.254;11.314;2023-05-20T15:23:52;4.45;;;3.63;;
20318;SDS011;10317;47.254;11.314;2023-05-20T15:26:17;5.45;;;3.72;;
20318;SDS011;10317;47.254;11.314;2023-05-20T15:28:43;4.07;;;3.65;;
20318;SDS011;10317;47.254;11.314;2023-05-20T15:31:09;4.20;;;3.42;;
20318;SDS011;10317;47.254;11.314;2023-05-20T15:33:35;5.00;;;3.30;;
20318;SDS011;10317;47.254;11.314;2023-05-20T15:36:00;4.75;;;4.10;;
20318;SDS011;10317;47.254;11.314;2023-05-20T15:38:26;4.57;;;4.18;;
20318;SDS011;10317;47.254;11.314;2023-05-20T15:40:52;4.25;;;3.80;;
20318;SDS011;10317;47.254;11.314;2023-05-20T15:43:18;6.28;;;4.32;;
20318;SDS011;10317;47.254;11.314;2023-05-20T15:45:44;4.05;;;3.72;;
20318;SDS011;10317;47.254;11.314;2023-05-20T15:48:13;4.05;;;3.63;;
20318;SDS011;10317;47.254;11.314;2023-05-20T15:50:39;4.20;;;3.83;;
20318;SDS011;10317;47.254;11.314;2023-05-20T15:53:05;3.85;;;3.55;;
20318;SDS011;10317;47.254;11.314;2023-05-20T15:55:32;7.38;;;4.15;;
20318;SDS011;10317;47.254;11.314;2023-05-20T15:57:58;4.97;;;3.92;;
20318;SDS011;10317;47.254;11.314;2023-05-20T16:00:25;6.40;;;3.63;;
20318;SDS011;10317;47.254;11.314;2023-05-20T16:02:53;5.43;;;3.70;;
20318;SDS011;10317;47.254;11.314;2023-05-20T16:05:20;3.85;;;3.55;;
20318;SDS011;10317;47.254;11.314;2023-05-20T16:07:48;4.93;;;3.95;;
20318;SDS011;10317;47.254;11.314;2023-05-20T16:10:14;3.92;;;3.47;;
20318;SDS011;10317;47.254;11.314;2023-05-20T16:12:40;4.22;;;3.90;;
20318;SDS011;10317;47.254;11.314;2023-05-20T16:15:06;4.22;;;3.50;;
20318;SDS011;10317;47.254;11.314;2023-05-20T16:17:34;5.25;;;4.05;;
20318;SDS011;10317;47.254;11.314;2023-05-20T16:20:00;5.18;;;4.00;;
20318;SDS011;10317;47.254;11.314;2023-05-20T16:22:27;4.75;;;3.85;;
20318;SDS011;10317;47.254;11.314;2023-05-20T16:24:52;6.03;;;4.60;;
20318;SDS011;10317;47.254;11.314;2023-05-20T16:27:18;4.82;;;3.70;;
20318;SDS011;10317;47.254;11.314;2023-05-20T16:29:44;4.50;;;4.10;;
20318;SDS011;10317;47.254;11.314;2023-05-20T16:32:11;3.92;;;3.53;;
20318;SDS011;10317;47.254;11.314;2023-05-20T16:34:37;5.57;;;4.28;;
20318;SDS011;10317;47.254;11.314;2023-05-20T16:37:02;3.92;;;3.60;;
20318;SDS011;10317;47.254;11.314;2023-05-20T16:39:28;5.43;;;3.90;;
20318;SDS011;10317;47.254;11.314;2023-05-20T16:41:54;4.85;;;4.40;;
20318;SDS011;10317;47.254;11.314;2023-05-20T16:44:20;5.25;;;4.18;;
20318;SDS011;10317;47.254;11.314;2023-05-20T16:46:45;4.18;;;3.75;;
20318;SDS011;10317;47.254;11.314;2023-05-20T16:49:11;8.35;;;4.10;;
20318;SDS011;10317;47.254;11.314;2023-05-20T16:51:37;3.72;;;2.72;;
20318;SDS011;10317;47.254;11.314;2023-05-20T16:54:02;4.68;;;3.95;;
20318;SDS011;10317;47.254;11.314;2023-05-20T16:56:28;5.20;;;4.30;;
20318;SDS011;10317;47.254;11.314;2023-05-20T16:58:54;6.05;;;4.20;;
20318;SDS011;10317;47.254;11.314;2023-05-20T17:01:20;4.50;;;4.10;;
20318;SDS011;10317;47.254;11.314;2023-05-20T17:03:46;4.93;;;4.45;;
20318;SDS011;10317;47.254;11.314;2023-05-20T17:06:12;8.63;;;4.93;;
20318;SDS011;10317;47.254;11.314;2023-05-20T17:08:38;5.60;;;3.90;;
20318;SDS011;10317;47.254;11.314;2023-05-20T17:11:04;4.88;;;3.85;;
20318;SDS011;10317;47.254;11.314;2023-05-20T17:13:29;8.25;;;4.07;;
20318;SDS011;10317;47.254;11.314;2023-05-20T17:15:55;4.25;;;3.85;;
20318;SDS011;10317;47.254;11.314;2023-05-20T17:18:21;7.03;;;4.15;;
20318;SDS011;10317;47.254;11.314;2023-05-20T17:20:47;5.38;;;4.20;;
20318;SDS011;10317;47.254;11.314;2023-05-20T17:23:13;6.60;;;4.15;;
20318;SDS011;10317;47.254;11.314;2023-05-20T17:25:39;7.00;;;4.80;;
20318;SDS011;10317;47.254;11.314;2023-05-20T17:28:04;6.07;;;4.50;;
20318;SDS011;10317;47.254;11.314;2023-05-20T17:30:30;3.80;;;3.50;;
20318;SDS011;10317;47.254;11.314;2023-05-20T17:32:56;4.45;;;4.03;;
20318;SDS011;10317;47.254;11.314;2023-05-20T17:35:21;5.18;;;3.63;;
20318;SDS011;10317;47.254;11.314;2023-05-20T17:37:50;4.60;;;4.10;;
20318;SDS011;10317;47.254;11.314;2023-05-20T17:40:17;4.25;;;3.85;;
20318;SDS011;10317;47.254;11.314;2023-05-20T17:42:43;3.78;;;3.45;;
20318;SDS011;10317;47.254;11.314;2023-05-20T17:45:09;5.80;;;4.20;;
20318;SDS011;10317;47.254;11.314;2023-05-20T17:47:35;10.50;;;4.50;;
20318;SDS011;10317;47.254;11.314;2023-05-20T17:50:01;5.53;;;3.80;;
20318;SDS011;10317;47.254;11.314;2023-05-20T17:52:32;5.80;;;4.05;;
20318;SDS011;10317;47.254;11.314;2023-05-20T17:54:57;9.40;;;3.95;;
20318;SDS011;10317;47.254;11.314;2023-05-20T17:57:23;4.40;;;3.97;;
20318;SDS011;10317;47.254;11.314;2023-05-20T17:59:55;4.20;;;3.80;;
20318;SDS011;10317;47.254;11.314;2023-05-20T18:02:22;5.75;;;4.57;;
20318;SDS011;10317;47.254;11.314;2023-05-20T18:07:38;5.55;;;4.85;;
20318;SDS011;10317;47.254;11.314;2023-05-20T18:10:04;5.30;;;4.80;;
20318;SDS011;10317;47.254;11.314;2023-05-20T18:12:31;4.53;;;4.07;;
20318;SDS011;10317;47.254;11.314;2023-05-20T18:14:57;7.97;;;4.88;;
20318;SDS011;10317;47.254;11.314;2023-05-20T18:21:04;5.25;;;4.75;;
20318;SDS011;10317;47.254;11.314;2023-05-20T18:30:59;6.32;;;5.40;;
20318;SDS011;10317;47.254;11.314;2023-05-20T18:43:50;5.53;;;4.75;;
20318;SDS011;10317;47.254;11.314;2023-05-20T18:46:56;5.05;;;4.60;;
20318;SDS011;10317;47.254;11.314;2023-05-20T18:59:57;6.30;;;5.15;;
20318;SDS011;10317;47.254;11.314;2023-05-20T19:02:39;8.05;;;5.82;;
20318;SDS011;10317;47.254;11.314;2023-05-20T19:06:06;6.78;;;6.15;;
20318;SDS011;10317;47.254;11.314;2023-05-20T19:08:52;5.43;;;4.90;;
20318;SDS011;10317;47.254;11.314;2023-05-20T19:11:18;8.73;;;5.25;;
20318;SDS011;10317;47.254;11.314;2023-05-20T19:13:44;5.97;;;5.20;;
20318;SDS011;10317;47.254;11.314;2023-05-20T19:16:10;5.60;;;4.50;;
20318;SDS011;10317;47.254;11.314;2023-05-20T19:18:36;6.03;;;5.43;;
20318;SDS011;10317;47.254;11.314;2023-05-20T19:21:11;6.30;;;5.00;;
20318;SDS011;10317;47.254;11.314;2023-05-20T19:23:37;7.45;;;5.60;;
20318;SDS011;10317;47.254;11.314;2023-05-20T19:26:03;9.65;;;5.60;;
20318;SDS011;10317;47.254;11.314;2023-05-20T19:28:29;8.38;;;6.03;;
20318;SDS011;10317;47.254;11.314;2023-05-20T19:30:55;6.30;;;5.10;;
20318;SDS011;10317;47.254;11.314;2023-05-20T19:33:21;5.95;;;5.35;;
20318;SDS011;10317;47.254;11.314;2023-05-20T19:35:46;6.03;;;4.70;;
20318;SDS011;10317;47.254;11.314;2023-05-20T19:38:12;8.40;;;5.20;;
20318;SDS011;10317;47.254;11.314;2023-05-20T19:40:38;7.07;;;5.90;;
20318;SDS011;10317;47.254;11.314;2023-05-20T19:43:04;6.13;;;5.30;;
20318;SDS011;10317;47.254;11.314;2023-05-20T19:45:34;8.18;;;4.90;;
20318;SDS011;10317;47.254;11.314;2023-05-20T19:48:01;9.07;;;5.75;;
20318;SDS011;10317;47.254;11.314;2023-05-20T19:50:27;6.53;;;5.25;;
20318;SDS011;10317;47.254;11.314;2023-05-20T19:52:57;6.45;;;5.72;;
20318;SDS011;10317;47.254;11.314;2023-05-20T19:55:22;8.93;;;6.10;;
20318;SDS011;10317;47.254;11.314;2023-05-20T19:57:48;7.55;;;6.53;;
20318;SDS011;10317;47.254;11.314;2023-05-20T20:00:20;8.15;;;5.53;;
20318;SDS011;10317;47.254;11.314;2023-05-20T20:02:46;11.30;;;5.90;;
20318;SDS011;10317;47.254;11.314;2023-05-20T20:05:12;7.70;;;5.95;;
20318;SDS011;10317;47.254;11.314;2023-05-20T20:07:38;7.53;;;5.82;;
20318;SDS011;10317;47.254;11.314;2023-05-20T20:10:04;10.27;;;5.20;;
20318;SDS011;10317;47.254;11.314;2023-05-20T20:12:30;9.15;;;6.95;;
20318;SDS011;10317;47.254;11.314;2023-05-20T20:14:57;6.60;;;5.95;;
20318;SDS011;10317;47.254;11.314;2023-05-20T20:17:25;7.80;;;5.68;;
20318;SDS011;10317;47.254;11.314;2023-05-20T20:19:57;7.30;;;5.85;;
20318;SDS011;10317;47.254;11.314;2023-05-20T20:22:23;6.75;;;6.03;;
20318;SDS011;10317;47.254;11.314;2023-05-20T20:24:49;6.78;;;5.90;;
20318;SDS011;10317;47.254;11.314;2023-05-20T20:27:15;10.63;;;6.10;;
20318;SDS011;10317;47.254;11.314;2023-05-20T20:29:43;6.32;;;5.70;;
20318;SDS011;10317;47.254;11.314;2023-05-20T20:32:19;6.10;;;5.03;;
20318;SDS011;10317;47.254;11.314;2023-05-20T20:34:47;7.07;;;6.40;;
20318;SDS011;10317;47.254;11.314;2023-05-20T20:37:15;7.00;;;5.25;;
20318;SDS011;10317;47.254;11.314;2023-05-20T20:39:41;6.97;;;5.85;;
20318;SDS011;10317;47.254;11.314;2023-05-20T20:42:09;11.75;;;6.10;;
20318;SDS011;10317;47.254;11.314;2023-05-20T20:47:23;5.68;;;5.07;;
20318;SDS011;10317;47.254;11.314;2023-05-20T20:49:53;5.63;;;5.03;;
20318;SDS011;10317;47.254;11.314;2023-05-20T20:52:20;7.70;;;6.47;;
20318;SDS011;10317;47.254;11.314;2023-05-20T20:54:45;7.55;;;5.15;;
20318;SDS011;10317;47.254;11.314;2023-05-20T20:57:11;7.35;;;6.43;;
20318;SDS011;10317;47.254;11.314;2023-05-20T20:59:37;10.40;;;6.00;;
20318;SDS011;10317;47.254;11.314;2023-05-20T21:02:04;8.27;;;5.93;;
20318;SDS011;10317;47.254;11.314;2023-05-20T21:04:30;10.38;;;6.68;;
20318;SDS011;10317;47.254;11.314;2023-05-20T21:06:56;6.35;;;5.40;;
20318;SDS011;10317;47.254;11.314;2023-05-20T21:09:25;6.25;;;5.60;;
20318;SDS011;10317;47.254;11.314;2023-05-20T21:11:51;6.45;;;5.70;;